Ana Sayfa
METAR-TAF:

METAR-TAF

Havaalanları :

Warren Field Airport

Washington, Kuzey Carolina, Amerika Birleşik Devletleri

Enlem: 35-34-14N, Boylam: 077-02-59W, yükseklik: 12 m

Güncel hava durumu gözlemi

Rapor saat 17:15 UTC de 23 dakika önce yapıldı.
Rüzgar güneybatıdan 6 kt ve 14 kt'a kadar ani rüzgarlar
Sıcaklık 35°C
Nem 50%
Basınç 1016 hPa
Görüş mesafesi: 16.1 km
Açık gökyüzü

METAR: KOCW 201715Z AUTO 22006G14KT 10SM CLR 35/23 A2999 RMK AO2 T03460234

Saat: 13:38 (17:38 UTC)


TAF: eksik

4.000'den fazla havaalanı için hava durumu gözlemleri ve tahminleri (METAR ve TAF raporları).

Kullanılabilir istasyonlar harita üzerinde sarı ve kırmızı noktalarla gösterilir.

İstasyonun adını görmek için fareyi noktanın üzerinde gezdirin.

Sonrasında hava gözlem ve tahminlerini görmek için tıklayın.

Haritayı değiştirmek için: yaklaştırmak için siyah artı işaretli yeşil düğmeye ve uzaklaştırmak için de eksi işaretli düğmeye hızla tıklayın; bitişik haritalar için yeşil okları kullanın.


METAR-TAF: